sensor_id;sensor_type;location;lat;lon;timestamp;P1;durP1;ratioP1;P2;durP2;ratioP2
77822;SDS011;67013;49.730;17.292;2023-05-09T00:01:05;3.30;;;1.80;;
77822;SDS011;67013;49.730;17.292;2023-05-09T00:03:37;3.10;;;1.70;;
77822;SDS011;67013;49.730;17.292;2023-05-09T00:06:08;3.30;;;1.60;;
77822;SDS011;67013;49.730;17.292;2023-05-09T00:08:39;3.70;;;2.10;;
77822;SDS011;67013;49.730;17.292;2023-05-09T00:11:08;3.00;;;1.40;;
77822;SDS011;67013;49.730;17.292;2023-05-09T00:13:37;3.30;;;1.70;;
77822;SDS011;67013;49.730;17.292;2023-05-09T00:16:09;3.10;;;1.70;;
77822;SDS011;67013;49.730;17.292;2023-05-09T00:18:39;3.50;;;1.60;;
77822;SDS011;67013;49.730;17.292;2023-05-09T00:21:09;3.40;;;1.60;;
77822;SDS011;67013;49.730;17.292;2023-05-09T00:23:38;3.90;;;2.00;;
77822;SDS011;67013;49.730;17.292;2023-05-09T00:26:08;3.30;;;1.80;;
77822;SDS011;67013;49.730;17.292;2023-05-09T00:28:38;3.60;;;2.00;;
77822;SDS011;67013;49.730;17.292;2023-05-09T00:31:07;3.60;;;1.80;;
77822;SDS011;67013;49.730;17.292;2023-05-09T00:33:36;3.10;;;1.70;;
77822;SDS011;67013;49.730;17.292;2023-05-09T00:36:06;3.40;;;1.60;;
77822;SDS011;67013;49.730;17.292;2023-05-09T00:38:36;4.10;;;2.20;;
77822;SDS011;67013;49.730;17.292;2023-05-09T00:41:05;4.00;;;1.80;;
77822;SDS011;67013;49.730;17.292;2023-05-09T00:43:35;4.10;;;2.20;;
77822;SDS011;67013;49.730;17.292;2023-05-09T00:46:04;3.30;;;1.80;;
77822;SDS011;67013;49.730;17.292;2023-05-09T00:48:34;3.10;;;1.70;;
77822;SDS011;67013;49.730;17.292;2023-05-09T00:51:03;3.80;;;2.10;;
77822;SDS011;67013;49.730;17.292;2023-05-09T00:53:33;3.30;;;1.60;;
77822;SDS011;67013;49.730;17.292;2023-05-09T00:56:03;3.30;;;1.70;;
77822;SDS011;67013;49.730;17.292;2023-05-09T00:58:33;3.30;;;1.60;;
77822;SDS011;67013;49.730;17.292;2023-05-09T01:01:03;3.50;;;2.10;;
77822;SDS011;67013;49.730;17.292;2023-05-09T01:03:33;3.70;;;1.90;;
77822;SDS011;67013;49.730;17.292;2023-05-09T01:06:08;3.70;;;1.60;;
77822;SDS011;67013;49.730;17.292;2023-05-09T01:08:46;3.60;;;2.00;;
77822;SDS011;67013;49.730;17.292;2023-05-09T01:11:28;3.90;;;2.00;;
77822;SDS011;67013;49.730;17.292;2023-05-09T01:14:07;3.60;;;1.70;;
77822;SDS011;67013;49.730;17.292;2023-05-09T01:16:44;3.90;;;2.40;;
77822;SDS011;67013;49.730;17.292;2023-05-09T01:19:34;3.50;;;1.90;;
77822;SDS011;67013;49.730;17.292;2023-05-09T01:22:16;3.90;;;2.20;;
77822;SDS011;67013;49.730;17.292;2023-05-09T01:24:52;3.30;;;2.00;;
77822;SDS011;67013;49.730;17.292;2023-05-09T01:27:41;4.20;;;2.10;;
77822;SDS011;67013;49.730;17.292;2023-05-09T01:30:20;3.90;;;2.40;;
77822;SDS011;67013;49.730;17.292;2023-05-09T01:32:52;3.60;;;1.90;;
77822;SDS011;67013;49.730;17.292;2023-05-09T01:35:26;3.80;;;2.40;;
77822;SDS011;67013;49.730;17.292;2023-05-09T01:37:57;3.90;;;2.10;;
77822;SDS011;67013;49.730;17.292;2023-05-09T01:40:29;3.70;;;2.40;;
77822;SDS011;67013;49.730;17.292;2023-05-09T01:43:01;4.50;;;2.60;;
77822;SDS011;67013;49.730;17.292;2023-05-09T01:45:35;3.30;;;1.70;;
77822;SDS011;67013;49.730;17.292;2023-05-09T01:48:06;4.00;;;2.40;;
77822;SDS011;67013;49.730;17.292;2023-05-09T01:50:37;3.20;;;1.90;;
77822;SDS011;67013;49.730;17.292;2023-05-09T01:53:09;3.90;;;2.10;;
77822;SDS011;67013;49.730;17.292;2023-05-09T01:55:40;4.30;;;2.30;;
77822;SDS011;67013;49.730;17.292;2023-05-09T01:58:11;4.10;;;2.30;;
77822;SDS011;67013;49.730;17.292;2023-05-09T02:00:43;3.50;;;2.00;;
77822;SDS011;67013;49.730;17.292;2023-05-09T02:03:14;3.40;;;1.80;;
77822;SDS011;67013;49.730;17.292;2023-05-09T02:05:43;3.60;;;1.90;;
77822;SDS011;67013;49.730;17.292;2023-05-09T02:08:15;3.20;;;1.80;;
77822;SDS011;67013;49.730;17.292;2023-05-09T02:10:47;3.50;;;2.10;;
77822;SDS011;67013;49.730;17.292;2023-05-09T02:13:18;4.10;;;2.30;;
77822;SDS011;67013;49.730;17.292;2023-05-09T02:15:48;4.10;;;1.70;;
77822;SDS011;67013;49.730;17.292;2023-05-09T02:18:17;3.30;;;1.80;;
77822;SDS011;67013;49.730;17.292;2023-05-09T02:20:47;3.00;;;1.60;;
77822;SDS011;67013;49.730;17.292;2023-05-09T02:23:18;3.30;;;1.90;;
77822;SDS011;67013;49.730;17.292;2023-05-09T02:25:47;3.60;;;2.10;;
77822;SDS011;67013;49.730;17.292;2023-05-09T02:28:19;3.90;;;2.40;;
77822;SDS011;67013;49.730;17.292;2023-05-09T02:30:52;4.20;;;2.40;;
77822;SDS011;67013;49.730;17.292;2023-05-09T02:33:25;3.40;;;2.10;;
77822;SDS011;67013;49.730;17.292;2023-05-09T02:35:56;3.60;;;2.10;;
77822;SDS011;67013;49.730;17.292;2023-05-09T02:38:26;4.30;;;2.10;;
77822;SDS011;67013;49.730;17.292;2023-05-09T02:40:55;3.70;;;2.40;;
77822;SDS011;67013;49.730;17.292;2023-05-09T02:43:25;3.50;;;2.10;;
77822;SDS011;67013;49.730;17.292;2023-05-09T02:45:54;3.40;;;2.00;;
77822;SDS011;67013;49.730;17.292;2023-05-09T02:48:24;4.00;;;2.20;;
77822;SDS011;67013;49.730;17.292;2023-05-09T02:50:53;4.10;;;2.40;;
77822;SDS011;67013;49.730;17.292;2023-05-09T02:53:23;4.20;;;2.30;;
77822;SDS011;67013;49.730;17.292;2023-05-09T02:55:53;3.60;;;1.90;;
77822;SDS011;67013;49.730;17.292;2023-05-09T02:58:22;4.40;;;2.30;;
77822;SDS011;67013;49.730;17.292;2023-05-09T03:00:52;4.90;;;2.20;;
77822;SDS011;67013;49.730;17.292;2023-05-09T03:03:21;3.50;;;1.80;;
77822;SDS011;67013;49.730;17.292;2023-05-09T03:05:51;4.40;;;3.30;;
77822;SDS011;67013;49.730;17.292;2023-05-09T03:08:20;4.30;;;2.40;;
77822;SDS011;67013;49.730;17.292;2023-05-09T03:10:50;3.40;;;1.90;;
77822;SDS011;67013;49.730;17.292;2023-05-09T03:13:19;3.90;;;2.20;;
77822;SDS011;67013;49.730;17.292;2023-05-09T03:15:49;3.70;;;2.10;;
77822;SDS011;67013;49.730;17.292;2023-05-09T03:18:18;3.70;;;2.10;;
77822;SDS011;67013;49.730;17.292;2023-05-09T03:20:48;3.80;;;2.30;;
77822;SDS011;67013;49.730;17.292;2023-05-09T03:23:17;3.70;;;2.20;;
77822;SDS011;67013;49.730;17.292;2023-05-09T03:25:47;3.70;;;2.60;;
77822;SDS011;67013;49.730;17.292;2023-05-09T03:28:16;4.10;;;2.50;;
77822;SDS011;67013;49.730;17.292;2023-05-09T03:30:46;3.60;;;2.30;;
77822;SDS011;67013;49.730;17.292;2023-05-09T03:33:16;3.80;;;2.20;;
77822;SDS011;67013;49.730;17.292;2023-05-09T03:35:45;3.60;;;2.10;;
77822;SDS011;67013;49.730;17.292;2023-05-09T03:38:15;3.30;;;2.10;;
77822;SDS011;67013;49.730;17.292;2023-05-09T03:40:44;3.70;;;2.30;;
77822;SDS011;67013;49.730;17.292;2023-05-09T03:43:14;3.50;;;2.20;;
77822;SDS011;67013;49.730;17.292;2023-05-09T03:45:43;3.90;;;2.10;;
77822;SDS011;67013;49.730;17.292;2023-05-09T03:48:13;3.90;;;2.20;;
77822;SDS011;67013;49.730;17.292;2023-05-09T03:50:43;4.90;;;2.50;;
77822;SDS011;67013;49.730;17.292;2023-05-09T03:53:12;3.40;;;2.20;;
77822;SDS011;67013;49.730;17.292;2023-05-09T03:55:41;4.30;;;2.20;;
77822;SDS011;67013;49.730;17.292;2023-05-09T03:58:11;4.00;;;2.60;;
77822;SDS011;67013;49.730;17.292;2023-05-09T04:00:41;4.00;;;2.70;;
77822;SDS011;67013;49.730;17.292;2023-05-09T04:03:11;3.80;;;2.30;;
77822;SDS011;67013;49.730;17.292;2023-05-09T04:05:40;3.50;;;2.50;;
77822;SDS011;67013;49.730;17.292;2023-05-09T04:08:10;3.60;;;2.70;;
77822;SDS011;67013;49.730;17.292;2023-05-09T04:10:40;3.60;;;2.40;;
77822;SDS011;67013;49.730;17.292;2023-05-09T04:13:10;3.70;;;2.70;;
77822;SDS011;67013;49.730;17.292;2023-05-09T04:15:39;3.60;;;2.10;;
77822;SDS011;67013;49.730;17.292;2023-05-09T04:18:08;3.20;;;1.80;;
77822;SDS011;67013;49.730;17.292;2023-05-09T04:20:38;3.60;;;2.20;;
77822;SDS011;67013;49.730;17.292;2023-05-09T04:23:07;3.60;;;2.30;;
77822;SDS011;67013;49.730;17.292;2023-05-09T04:25:37;3.60;;;2.20;;
77822;SDS011;67013;49.730;17.292;2023-05-09T04:28:06;3.10;;;1.90;;
77822;SDS011;67013;49.730;17.292;2023-05-09T04:30:36;3.20;;;1.80;;
77822;SDS011;67013;49.730;17.292;2023-05-09T04:33:05;3.80;;;2.00;;
77822;SDS011;67013;49.730;17.292;2023-05-09T04:35:34;2.90;;;1.70;;
77822;SDS011;67013;49.730;17.292;2023-05-09T04:38:04;3.50;;;1.90;;
77822;SDS011;67013;49.730;17.292;2023-05-09T04:40:34;3.90;;;1.80;;
77822;SDS011;67013;49.730;17.292;2023-05-09T04:43:03;3.00;;;1.70;;
77822;SDS011;67013;49.730;17.292;2023-05-09T04:45:33;3.30;;;1.60;;
77822;SDS011;67013;49.730;17.292;2023-05-09T04:48:02;3.60;;;1.60;;
77822;SDS011;67013;49.730;17.292;2023-05-09T04:50:32;3.20;;;1.50;;
77822;SDS011;67013;49.730;17.292;2023-05-09T04:53:02;2.80;;;1.30;;
77822;SDS011;67013;49.730;17.292;2023-05-09T04:55:31;2.90;;;1.40;;
77822;SDS011;67013;49.730;17.292;2023-05-09T04:58:01;3.40;;;1.40;;
77822;SDS011;67013;49.730;17.292;2023-05-09T05:00:30;2.90;;;1.30;;
77822;SDS011;67013;49.730;17.292;2023-05-09T05:03:00;2.30;;;1.10;;
77822;SDS011;67013;49.730;17.292;2023-05-09T05:05:29;2.60;;;1.20;;
77822;SDS011;67013;49.730;17.292;2023-05-09T05:07:58;2.40;;;1.20;;
77822;SDS011;67013;49.730;17.292;2023-05-09T05:10:28;2.20;;;1.10;;
77822;SDS011;67013;49.730;17.292;2023-05-09T05:12:57;2.70;;;1.20;;
77822;SDS011;67013;49.730;17.292;2023-05-09T05:15:27;2.30;;;1.10;;
77822;SDS011;67013;49.730;17.292;2023-05-09T05:17:56;2.40;;;1.10;;
77822;SDS011;67013;49.730;17.292;2023-05-09T05:20:25;2.30;;;0.90;;
77822;SDS011;67013;49.730;17.292;2023-05-09T05:22:55;1.50;;;0.80;;
77822;SDS011;67013;49.730;17.292;2023-05-09T05:25:24;1.80;;;1.00;;
77822;SDS011;67013;49.730;17.292;2023-05-09T05:27:54;2.20;;;1.00;;
77822;SDS011;67013;49.730;17.292;2023-05-09T05:30:23;2.30;;;1.00;;
77822;SDS011;67013;49.730;17.292;2023-05-09T05:32:53;1.80;;;0.90;;
77822;SDS011;67013;49.730;17.292;2023-05-09T05:35:22;1.30;;;0.80;;
77822;SDS011;67013;49.730;17.292;2023-05-09T05:37:53;2.60;;;1.10;;
77822;SDS011;67013;49.730;17.292;2023-05-09T05:40:23;2.00;;;0.90;;
77822;SDS011;67013;49.730;17.292;2023-05-09T05:42:52;1.60;;;0.90;;
77822;SDS011;67013;49.730;17.292;2023-05-09T05:45:22;2.00;;;0.90;;
77822;SDS011;67013;49.730;17.292;2023-05-09T05:47:51;2.30;;;0.90;;
77822;SDS011;67013;49.730;17.292;2023-05-09T05:50:21;1.80;;;0.80;;
77822;SDS011;67013;49.730;17.292;2023-05-09T05:52:51;1.70;;;1.00;;
77822;SDS011;67013;49.730;17.292;2023-05-09T05:55:20;1.30;;;0.60;;
77822;SDS011;67013;49.730;17.292;2023-05-09T05:57:50;1.90;;;0.80;;
77822;SDS011;67013;49.730;17.292;2023-05-09T06:00:19;1.20;;;0.60;;
77822;SDS011;67013;49.730;17.292;2023-05-09T06:02:49;1.10;;;0.60;;
77822;SDS011;67013;49.730;17.292;2023-05-09T06:05:18;2.10;;;0.90;;
77822;SDS011;67013;49.730;17.292;2023-05-09T06:07:48;1.40;;;0.70;;
77822;SDS011;67013;49.730;17.292;2023-05-09T06:10:17;1.30;;;0.70;;
77822;SDS011;67013;49.730;17.292;2023-05-09T06:12:46;1.40;;;0.80;;
77822;SDS011;67013;49.730;17.292;2023-05-09T06:15:16;1.20;;;0.60;;
77822;SDS011;67013;49.730;17.292;2023-05-09T06:17:46;1.40;;;0.70;;
77822;SDS011;67013;49.730;17.292;2023-05-09T06:20:15;1.60;;;0.70;;
77822;SDS011;67013;49.730;17.292;2023-05-09T06:22:45;1.40;;;0.70;;
77822;SDS011;67013;49.730;17.292;2023-05-09T06:25:14;1.10;;;0.70;;
77822;SDS011;67013;49.730;17.292;2023-05-09T06:27:44;0.70;;;0.60;;
77822;SDS011;67013;49.730;17.292;2023-05-09T06:30:14;1.40;;;0.70;;
77822;SDS011;67013;49.730;17.292;2023-05-09T06:32:43;2.20;;;0.80;;
77822;SDS011;67013;49.730;17.292;2023-05-09T06:35:13;1.60;;;0.70;;
77822;SDS011;67013;49.730;17.292;2023-05-09T06:37:42;1.40;;;0.70;;
77822;SDS011;67013;49.730;17.292;2023-05-09T06:40:12;1.40;;;0.60;;
77822;SDS011;67013;49.730;17.292;2023-05-09T06:42:41;0.90;;;0.50;;
77822;SDS011;67013;49.730;17.292;2023-05-09T06:45:11;1.40;;;0.70;;
77822;SDS011;67013;49.730;17.292;2023-05-09T06:50:09;1.60;;;0.80;;
77822;SDS011;67013;49.730;17.292;2023-05-09T06:52:38;1.50;;;0.80;;
77822;SDS011;67013;49.730;17.292;2023-05-09T06:55:09;1.70;;;0.80;;
77822;SDS011;67013;49.730;17.292;2023-05-09T06:57:38;2.10;;;0.90;;
77822;SDS011;67013;49.730;17.292;2023-05-09T07:00:09;2.50;;;0.80;;
77822;SDS011;67013;49.730;17.292;2023-05-09T07:02:40;1.40;;;0.70;;
77822;SDS011;67013;49.730;17.292;2023-05-09T07:05:10;1.40;;;0.80;;
77822;SDS011;67013;49.730;17.292;2023-05-09T07:07:39;2.10;;;1.10;;
77822;SDS011;67013;49.730;17.292;2023-05-09T07:10:09;3.30;;;1.10;;
77822;SDS011;67013;49.730;17.292;2023-05-09T07:12:39;2.70;;;0.90;;
77822;SDS011;67013;49.730;17.292;2023-05-09T07:15:09;2.50;;;1.10;;
77822;SDS011;67013;49.730;17.292;2023-05-09T07:17:39;2.20;;;1.00;;
77822;SDS011;67013;49.730;17.292;2023-05-09T07:20:08;2.60;;;1.00;;
77822;SDS011;67013;49.730;17.292;2023-05-09T07:22:38;2.20;;;0.90;;
77822;SDS011;67013;49.730;17.292;2023-05-09T07:25:08;2.30;;;1.00;;
77822;SDS011;67013;49.730;17.292;2023-05-09T07:27:38;2.00;;;1.00;;
77822;SDS011;67013;49.730;17.292;2023-05-09T07:30:08;1.50;;;0.80;;
77822;SDS011;67013;49.730;17.292;2023-05-09T07:32:39;2.50;;;1.00;;
77822;SDS011;67013;49.730;17.292;2023-05-09T07:35:08;2.60;;;1.10;;
77822;SDS011;67013;49.730;17.292;2023-05-09T07:37:38;2.60;;;1.10;;
77822;SDS011;67013;49.730;17.292;2023-05-09T07:40:08;2.40;;;1.00;;
77822;SDS011;67013;49.730;17.292;2023-05-09T07:42:38;2.90;;;1.20;;
77822;SDS011;67013;49.730;17.292;2023-05-09T07:45:11;2.90;;;1.00;;
77822;SDS011;67013;49.730;17.292;2023-05-09T07:47:41;2.30;;;1.10;;
77822;SDS011;67013;49.730;17.292;2023-05-09T07:50:11;2.20;;;1.00;;
77822;SDS011;67013;49.730;17.292;2023-05-09T07:52:40;2.30;;;1.00;;
77822;SDS011;67013;49.730;17.292;2023-05-09T07:55:10;2.60;;;1.20;;
77822;SDS011;67013;49.730;17.292;2023-05-09T07:57:39;2.30;;;1.10;;
77822;SDS011;67013;49.730;17.292;2023-05-09T08:00:11;2.80;;;1.30;;
77822;SDS011;67013;49.730;17.292;2023-05-09T08:02:41;2.50;;;1.20;;
77822;SDS011;67013;49.730;17.292;2023-05-09T08:05:11;2.60;;;1.30;;
77822;SDS011;67013;49.730;17.292;2023-05-09T08:07:40;3.00;;;1.30;;
77822;SDS011;67013;49.730;17.292;2023-05-09T08:10:10;2.60;;;1.10;;
77822;SDS011;67013;49.730;17.292;2023-05-09T08:12:40;2.50;;;1.30;;
77822;SDS011;67013;49.730;17.292;2023-05-09T08:15:10;2.70;;;1.10;;
77822;SDS011;67013;49.730;17.292;2023-05-09T08:17:39;2.60;;;1.20;;
77822;SDS011;67013;49.730;17.292;2023-05-09T08:20:10;2.60;;;1.10;;
77822;SDS011;67013;49.730;17.292;2023-05-09T08:22:40;2.40;;;1.00;;
77822;SDS011;67013;49.730;17.292;2023-05-09T08:25:10;2.30;;;1.10;;
77822;SDS011;67013;49.730;17.292;2023-05-09T08:27:42;2.20;;;1.10;;
77822;SDS011;67013;49.730;17.292;2023-05-09T08:30:12;2.80;;;1.30;;
77822;SDS011;67013;49.730;17.292;2023-05-09T08:32:42;2.90;;;1.20;;
77822;SDS011;67013;49.730;17.292;2023-05-09T08:35:12;2.20;;;1.00;;
77822;SDS011;67013;49.730;17.292;2023-05-09T08:37:41;2.10;;;1.00;;
77822;SDS011;67013;49.730;17.292;2023-05-09T08:40:13;2.10;;;0.90;;
77822;SDS011;67013;49.730;17.292;2023-05-09T08:42:43;2.60;;;1.00;;
77822;SDS011;67013;49.730;17.292;2023-05-09T08:45:15;2.10;;;0.90;;
77822;SDS011;67013;49.730;17.292;2023-05-09T08:47:49;2.00;;;0.90;;
77822;SDS011;67013;49.730;17.292;2023-05-09T08:50:20;2.20;;;0.90;;
77822;SDS011;67013;49.730;17.292;2023-05-09T08:52:50;2.40;;;1.00;;
77822;SDS011;67013;49.730;17.292;2023-05-09T08:55:20;1.30;;;0.70;;
77822;SDS011;67013;49.730;17.292;2023-05-09T08:57:52;2.00;;;0.90;;
77822;SDS011;67013;49.730;17.292;2023-05-09T09:00:21;1.40;;;0.70;;
77822;SDS011;67013;49.730;17.292;2023-05-09T09:02:52;1.00;;;0.60;;
77822;SDS011;67013;49.730;17.292;2023-05-09T09:05:23;1.50;;;0.80;;
77822;SDS011;67013;49.730;17.292;2023-05-09T09:10:23;1.70;;;0.80;;
77822;SDS011;67013;49.730;17.292;2023-05-09T09:12:53;1.30;;;0.80;;
77822;SDS011;67013;49.730;17.292;2023-05-09T09:15:25;2.00;;;0.90;;
77822;SDS011;67013;49.730;17.292;2023-05-09T09:17:57;2.30;;;1.10;;
77822;SDS011;67013;49.730;17.292;2023-05-09T09:20:32;1.90;;;0.90;;
77822;SDS011;67013;49.730;17.292;2023-05-09T09:23:02;2.40;;;1.00;;
77822;SDS011;67013;49.730;17.292;2023-05-09T09:25:36;1.90;;;1.10;;
77822;SDS011;67013;49.730;17.292;2023-05-09T09:28:06;2.70;;;1.10;;
77822;SDS011;67013;49.730;17.292;2023-05-09T09:30:41;1.70;;;0.80;;
77822;SDS011;67013;49.730;17.292;2023-05-09T09:33:18;3.20;;;1.40;;
77822;SDS011;67013;49.730;17.292;2023-05-09T09:35:49;1.80;;;0.90;;
77822;SDS011;67013;49.730;17.292;2023-05-09T09:38:20;2.80;;;1.10;;
77822;SDS011;67013;49.730;17.292;2023-05-09T09:40:53;1.60;;;0.80;;
77822;SDS011;67013;49.730;17.292;2023-05-09T09:43:27;2.60;;;1.10;;
77822;SDS011;67013;49.730;17.292;2023-05-09T09:45:57;1.80;;;0.80;;
77822;SDS011;67013;49.730;17.292;2023-05-09T09:48:31;2.10;;;1.00;;
77822;SDS011;67013;49.730;17.292;2023-05-09T09:51:08;2.40;;;1.00;;
77822;SDS011;67013;49.730;17.292;2023-05-09T09:53:41;1.90;;;1.00;;
77822;SDS011;67013;49.730;17.292;2023-05-09T09:56:12;2.40;;;1.10;;
77822;SDS011;67013;49.730;17.292;2023-05-09T09:58:41;2.10;;;1.00;;
77822;SDS011;67013;49.730;17.292;2023-05-09T10:01:11;2.20;;;1.00;;
77822;SDS011;67013;49.730;17.292;2023-05-09T10:03:42;2.20;;;1.00;;
77822;SDS011;67013;49.730;17.292;2023-05-09T10:06:13;2.30;;;0.90;;
77822;SDS011;67013;49.730;17.292;2023-05-09T10:08:43;1.60;;;0.80;;
77822;SDS011;67013;49.730;17.292;2023-05-09T10:11:14;2.60;;;0.90;;
77822;SDS011;67013;49.730;17.292;2023-05-09T10:13:44;2.40;;;1.20;;
77822;SDS011;67013;49.730;17.292;2023-05-09T10:16:13;2.20;;;1.00;;
77822;SDS011;67013;49.730;17.292;2023-05-09T10:18:43;1.80;;;1.00;;
77822;SDS011;67013;49.730;17.292;2023-05-09T10:21:13;2.30;;;1.10;;
77822;SDS011;67013;49.730;17.292;2023-05-09T10:23:44;2.00;;;0.90;;
77822;SDS011;67013;49.730;17.292;2023-05-09T10:26:16;2.20;;;0.90;;
77822;SDS011;67013;49.730;17.292;2023-05-09T10:28:53;1.90;;;1.00;;
77822;SDS011;67013;49.730;17.292;2023-05-09T10:31:24;1.90;;;0.90;;
77822;SDS011;67013;49.730;17.292;2023-05-09T10:33:54;2.20;;;1.10;;
77822;SDS011;67013;49.730;17.292;2023-05-09T10:36:26;2.00;;;1.00;;
77822;SDS011;67013;49.730;17.292;2023-05-09T10:38:56;2.60;;;1.10;;
77822;SDS011;67013;49.730;17.292;2023-05-09T10:41:27;2.90;;;1.10;;
77822;SDS011;67013;49.730;17.292;2023-05-09T10:43:57;2.70;;;1.10;;
77822;SDS011;67013;49.730;17.292;2023-05-09T10:46:27;2.30;;;1.00;;
77822;SDS011;67013;49.730;17.292;2023-05-09T10:48:56;2.30;;;1.10;;
77822;SDS011;67013;49.730;17.292;2023-05-09T10:51:27;2.50;;;1.00;;
77822;SDS011;67013;49.730;17.292;2023-05-09T10:53:58;2.60;;;1.10;;
77822;SDS011;67013;49.730;17.292;2023-05-09T10:56:29;1.80;;;0.80;;
77822;SDS011;67013;49.730;17.292;2023-05-09T10:59:01;2.30;;;1.00;;
77822;SDS011;67013;49.730;17.292;2023-05-09T11:01:31;1.30;;;0.70;;
77822;SDS011;67013;49.730;17.292;2023-05-09T11:04:07;1.90;;;1.00;;
77822;SDS011;67013;49.730;17.292;2023-05-09T11:06:41;2.00;;;0.90;;
77822;SDS011;67013;49.730;17.292;2023-05-09T11:09:24;1.90;;;0.80;;
77822;SDS011;67013;49.730;17.292;2023-05-09T11:11:55;2.50;;;1.10;;
77822;SDS011;67013;49.730;17.292;2023-05-09T11:14:29;2.00;;;0.90;;
77822;SDS011;67013;49.730;17.292;2023-05-09T11:17:00;2.30;;;1.00;;
77822;SDS011;67013;49.730;17.292;2023-05-09T11:19:36;2.70;;;1.40;;
77822;SDS011;67013;49.730;17.292;2023-05-09T11:22:23;1.50;;;0.80;;
77822;SDS011;67013;49.730;17.292;2023-05-09T11:24:58;2.70;;;1.20;;
77822;SDS011;67013;49.730;17.292;2023-05-09T11:27:35;2.80;;;1.30;;
77822;SDS011;67013;49.730;17.292;2023-05-09T11:30:12;2.20;;;1.00;;
77822;SDS011;67013;49.730;17.292;2023-05-09T11:32:44;2.40;;;0.90;;
77822;SDS011;67013;49.730;17.292;2023-05-09T11:35:15;2.30;;;0.90;;
77822;SDS011;67013;49.730;17.292;2023-05-09T11:37:47;2.10;;;1.10;;
77822;SDS011;67013;49.730;17.292;2023-05-09T11:40:21;2.60;;;1.20;;
77822;SDS011;67013;49.730;17.292;2023-05-09T11:42:51;2.60;;;1.10;;
77822;SDS011;67013;49.730;17.292;2023-05-09T11:45:21;2.70;;;1.10;;
77822;SDS011;67013;49.730;17.292;2023-05-09T11:47:52;2.40;;;0.90;;
77822;SDS011;67013;49.730;17.292;2023-05-09T11:50:23;2.20;;;1.10;;
77822;SDS011;67013;49.730;17.292;2023-05-09T11:52:53;2.40;;;1.10;;
77822;SDS011;67013;49.730;17.292;2023-05-09T11:55:22;2.50;;;1.10;;
77822;SDS011;67013;49.730;17.292;2023-05-09T11:57:55;2.40;;;1.20;;
77822;SDS011;67013;49.730;17.292;2023-05-09T12:00:25;2.20;;;1.10;;
77822;SDS011;67013;49.730;17.292;2023-05-09T12:02:55;1.70;;;1.00;;
77822;SDS011;67013;49.730;17.292;2023-05-09T12:05:24;2.20;;;0.90;;
77822;SDS011;67013;49.730;17.292;2023-05-09T12:07:54;2.20;;;0.90;;
77822;SDS011;67013;49.730;17.292;2023-05-09T12:10:28;3.60;;;1.20;;
77822;SDS011;67013;49.730;17.292;2023-05-09T12:12:58;2.20;;;1.00;;
77822;SDS011;67013;49.730;17.292;2023-05-09T12:15:28;2.50;;;1.10;;
77822;SDS011;67013;49.730;17.292;2023-05-09T12:18:03;3.40;;;1.10;;
77822;SDS011;67013;49.730;17.292;2023-05-09T12:20:41;2.40;;;1.00;;
77822;SDS011;67013;49.730;17.292;2023-05-09T12:23:12;1.50;;;0.90;;
77822;SDS011;67013;49.730;17.292;2023-05-09T12:25:47;2.60;;;0.90;;
77822;SDS011;67013;49.730;17.292;2023-05-09T12:28:20;1.90;;;0.90;;
77822;SDS011;67013;49.730;17.292;2023-05-09T12:30:51;1.60;;;0.60;;
77822;SDS011;67013;49.730;17.292;2023-05-09T12:33:21;2.30;;;1.00;;
77822;SDS011;67013;49.730;17.292;2023-05-09T12:36:01;2.10;;;0.90;;
77822;SDS011;67013;49.730;17.292;2023-05-09T12:38:33;2.20;;;0.90;;
77822;SDS011;67013;49.730;17.292;2023-05-09T12:41:03;2.70;;;1.00;;
77822;SDS011;67013;49.730;17.292;2023-05-09T12:43:34;1.90;;;1.00;;
77822;SDS011;67013;49.730;17.292;2023-05-09T12:46:05;1.90;;;0.80;;
77822;SDS011;67013;49.730;17.292;2023-05-09T12:48:35;1.80;;;0.80;;
77822;SDS011;67013;49.730;17.292;2023-05-09T12:51:05;2.60;;;1.10;;
77822;SDS011;67013;49.730;17.292;2023-05-09T12:53:37;1.80;;;0.90;;
77822;SDS011;67013;49.730;17.292;2023-05-09T12:56:12;2.00;;;0.90;;
77822;SDS011;67013;49.730;17.292;2023-05-09T12:58:48;2.50;;;1.20;;
77822;SDS011;67013;49.730;17.292;2023-05-09T13:01:18;1.70;;;0.90;;
77822;SDS011;67013;49.730;17.292;2023-05-09T13:03:58;2.30;;;1.10;;
77822;SDS011;67013;49.730;17.292;2023-05-09T13:06:29;2.10;;;0.90;;
77822;SDS011;67013;49.730;17.292;2023-05-09T13:08:59;2.70;;;1.00;;
77822;SDS011;67013;49.730;17.292;2023-05-09T13:11:31;2.20;;;0.90;;
77822;SDS011;67013;49.730;17.292;2023-05-09T13:14:03;2.00;;;1.00;;
77822;SDS011;67013;49.730;17.292;2023-05-09T13:16:32;2.40;;;0.80;;
77822;SDS011;67013;49.730;17.292;2023-05-09T13:19:02;2.40;;;0.90;;
77822;SDS011;67013;49.730;17.292;2023-05-09T13:21:32;2.70;;;1.00;;
77822;SDS011;67013;49.730;17.292;2023-05-09T13:24:02;2.10;;;0.90;;
77822;SDS011;67013;49.730;17.292;2023-05-09T13:26:32;3.10;;;1.00;;
77822;SDS011;67013;49.730;17.292;2023-05-09T13:29:01;2.40;;;0.90;;
77822;SDS011;67013;49.730;17.292;2023-05-09T13:31:31;2.20;;;0.90;;
77822;SDS011;67013;49.730;17.292;2023-05-09T13:34:00;2.30;;;1.00;;
77822;SDS011;67013;49.730;17.292;2023-05-09T13:36:30;2.40;;;1.10;;
77822;SDS011;67013;49.730;17.292;2023-05-09T13:38:59;2.40;;;0.90;;
77822;SDS011;67013;49.730;17.292;2023-05-09T13:41:29;2.90;;;1.20;;
77822;SDS011;67013;49.730;17.292;2023-05-09T13:43:59;1.80;;;0.80;;
77822;SDS011;67013;49.730;17.292;2023-05-09T13:46:29;2.50;;;1.10;;
77822;SDS011;67013;49.730;17.292;2023-05-09T13:48:58;1.70;;;0.90;;
77822;SDS011;67013;49.730;17.292;2023-05-09T13:51:28;2.60;;;1.20;;
77822;SDS011;67013;49.730;17.292;2023-05-09T13:53:58;2.00;;;0.90;;
77822;SDS011;67013;49.730;17.292;2023-05-09T13:56:27;2.30;;;0.90;;
77822;SDS011;67013;49.730;17.292;2023-05-09T13:58:57;2.60;;;1.10;;
77822;SDS011;67013;49.730;17.292;2023-05-09T14:01:27;3.10;;;1.10;;
77822;SDS011;67013;49.730;17.292;2023-05-09T14:03:56;3.00;;;1.00;;
77822;SDS011;67013;49.730;17.292;2023-05-09T14:06:28;2.80;;;1.20;;
77822;SDS011;67013;49.730;17.292;2023-05-09T14:08:58;2.20;;;1.00;;
77822;SDS011;67013;49.730;17.292;2023-05-09T14:11:28;2.20;;;1.00;;
77822;SDS011;67013;49.730;17.292;2023-05-09T14:13:57;2.40;;;1.00;;
77822;SDS011;67013;49.730;17.292;2023-05-09T14:16:27;2.90;;;1.20;;
77822;SDS011;67013;49.730;17.292;2023-05-09T14:18:56;2.10;;;1.00;;
77822;SDS011;67013;49.730;17.292;2023-05-09T14:21:26;2.40;;;1.20;;
77822;SDS011;67013;49.730;17.292;2023-05-09T14:23:55;1.90;;;0.90;;
77822;SDS011;67013;49.730;17.292;2023-05-09T14:26:25;2.60;;;1.10;;
77822;SDS011;67013;49.730;17.292;2023-05-09T14:28:54;1.90;;;0.80;;
77822;SDS011;67013;49.730;17.292;2023-05-09T14:31:23;2.30;;;1.30;;
77822;SDS011;67013;49.730;17.292;2023-05-09T14:33:54;2.20;;;0.80;;
77822;SDS011;67013;49.730;17.292;2023-05-09T14:36:25;1.80;;;0.90;;
77822;SDS011;67013;49.730;17.292;2023-05-09T14:38:55;2.60;;;1.00;;
77822;SDS011;67013;49.730;17.292;2023-05-09T14:41:25;2.20;;;0.90;;
77822;SDS011;67013;49.730;17.292;2023-05-09T14:43:54;2.30;;;1.10;;
77822;SDS011;67013;49.730;17.292;2023-05-09T14:46:24;2.70;;;0.90;;
77822;SDS011;67013;49.730;17.292;2023-05-09T14:48:54;2.30;;;1.20;;
77822;SDS011;67013;49.730;17.292;2023-05-09T14:51:29;2.10;;;0.90;;
77822;SDS011;67013;49.730;17.292;2023-05-09T14:53:59;2.40;;;1.00;;
77822;SDS011;67013;49.730;17.292;2023-05-09T14:56:29;1.70;;;0.90;;
77822;SDS011;67013;49.730;17.292;2023-05-09T14:58:58;1.80;;;0.90;;